sensor_id;sensor_type;location;lat;lon;timestamp;P1;P2;P0
47079;PMS5003;33067;49.296;14.470;2023-04-06T00:01:58;84;73;
47079;PMS5003;33067;49.296;14.470;2023-04-06T00:04:23;62;58;
47079;PMS5003;33067;49.296;14.470;2023-04-06T00:06:49;83;66;
47079;PMS5003;33067;49.296;14.470;2023-04-06T00:09:14;89;80;
47079;PMS5003;33067;49.296;14.470;2023-04-06T00:11:40;84;77;
47079;PMS5003;33067;49.296;14.470;2023-04-06T00:14:05;82;69;
47079;PMS5003;33067;49.296;14.470;2023-04-06T00:16:30;83;71;
47079;PMS5003;33067;49.296;14.470;2023-04-06T00:18:56;80;69;
47079;PMS5003;33067;49.296;14.470;2023-04-06T00:21:21;83;71;
47079;PMS5003;33067;49.296;14.470;2023-04-06T00:23:47;78;69;
47079;PMS5003;33067;49.296;14.470;2023-04-06T00:26:12;73;65;
47079;PMS5003;33067;49.296;14.470;2023-04-06T00:28:37;72;68;
47079;PMS5003;33067;49.296;14.470;2023-04-06T00:31:03;61;53;
47079;PMS5003;33067;49.296;14.470;2023-04-06T00:33:28;81;74;
47079;PMS5003;33067;49.296;14.470;2023-04-06T00:35:54;89;78;
47079;PMS5003;33067;49.296;14.470;2023-04-06T00:38:20;77;70;
47079;PMS5003;33067;49.296;14.470;2023-04-06T00:40:45;61;56;
47079;PMS5003;33067;49.296;14.470;2023-04-06T00:43:11;77;77;
47079;PMS5003;33067;49.296;14.470;2023-04-06T00:45:37;68;64;
47079;PMS5003;33067;49.296;14.470;2023-04-06T00:48:02;83;75;
47079;PMS5003;33067;49.296;14.470;2023-04-06T00:50:27;72;61;
47079;PMS5003;33067;49.296;14.470;2023-04-06T00:52:53;72;67;
47079;PMS5003;33067;49.296;14.470;2023-04-06T00:55:17;65;63;
47079;PMS5003;33067;49.296;14.470;2023-04-06T00:57:42;72;68;
47079;PMS5003;33067;49.296;14.470;2023-04-06T01:00:08;67;61;
47079;PMS5003;33067;49.296;14.470;2023-04-06T01:02:33;80;73;
47079;PMS5003;33067;49.296;14.470;2023-04-06T01:04:58;71;67;
47079;PMS5003;33067;49.296;14.470;2023-04-06T01:07:24;73;66;
47079;PMS5003;33067;49.296;14.470;2023-04-06T01:09:50;76;72;
47079;PMS5003;33067;49.296;14.470;2023-04-06T01:12:15;79;73;
47079;PMS5003;33067;49.296;14.470;2023-04-06T01:14:40;72;61;
47079;PMS5003;33067;49.296;14.470;2023-04-06T01:17:05;71;66;
47079;PMS5003;33067;49.296;14.470;2023-04-06T01:19:31;80;73;
47079;PMS5003;33067;49.296;14.470;2023-04-06T01:21:56;89;81;
47079;PMS5003;33067;49.296;14.470;2023-04-06T01:24:21;77;72;
47079;PMS5003;33067;49.296;14.470;2023-04-06T01:26:47;68;62;
47079;PMS5003;33067;49.296;14.470;2023-04-06T01:29:12;66;63;
47079;PMS5003;33067;49.296;14.470;2023-04-06T01:31:38;68;63;
47079;PMS5003;33067;49.296;14.470;2023-04-06T01:34:03;71;67;
47079;PMS5003;33067;49.296;14.470;2023-04-06T01:36:29;65;56;
47079;PMS5003;33067;49.296;14.470;2023-04-06T01:38:54;79;67;
47079;PMS5003;33067;49.296;14.470;2023-04-06T01:41:19;81;73;
47079;PMS5003;33067;49.296;14.470;2023-04-06T01:43:46;64;61;
47079;PMS5003;33067;49.296;14.470;2023-04-06T01:46:11;63;57;
47079;PMS5003;33067;49.296;14.470;2023-04-06T01:48:36;57;53;
47079;PMS5003;33067;49.296;14.470;2023-04-06T01:51:02;68;59;
47079;PMS5003;33067;49.296;14.470;2023-04-06T01:53:27;59;51;
47079;PMS5003;33067;49.296;14.470;2023-04-06T01:55:52;55;54;
47079;PMS5003;33067;49.296;14.470;2023-04-06T01:58:18;66;63;
47079;PMS5003;33067;49.296;14.470;2023-04-06T02:00:44;64;55;
47079;PMS5003;33067;49.296;14.470;2023-04-06T02:03:09;54;49;
47079;PMS5003;33067;49.296;14.470;2023-04-06T02:05:34;58;54;
47079;PMS5003;33067;49.296;14.470;2023-04-06T02:07:59;56;51;
47079;PMS5003;33067;49.296;14.470;2023-04-06T02:12:59;61;55;
47079;PMS5003;33067;49.296;14.470;2023-04-06T02:15:25;70;58;
47079;PMS5003;33067;49.296;14.470;2023-04-06T02:17:51;57;50;
47079;PMS5003;33067;49.296;14.470;2023-04-06T02:20:17;63;56;
47079;PMS5003;33067;49.296;14.470;2023-04-06T02:22:42;55;46;
47079;PMS5003;33067;49.296;14.470;2023-04-06T02:25:07;67;59;
47079;PMS5003;33067;49.296;14.470;2023-04-06T02:27:33;72;61;
47079;PMS5003;33067;49.296;14.470;2023-04-06T02:29:58;71;63;
47079;PMS5003;33067;49.296;14.470;2023-04-06T02:32:24;59;57;
47079;PMS5003;33067;49.296;14.470;2023-04-06T02:34:50;65;55;
47079;PMS5003;33067;49.296;14.470;2023-04-06T02:37:15;58;50;
47079;PMS5003;33067;49.296;14.470;2023-04-06T02:39:41;52;50;
47079;PMS5003;33067;49.296;14.470;2023-04-06T02:42:07;58;53;
47079;PMS5003;33067;49.296;14.470;2023-04-06T02:44:32;54;49;
47079;PMS5003;33067;49.296;14.470;2023-04-06T02:46:57;51;46;
47079;PMS5003;33067;49.296;14.470;2023-04-06T02:49:23;49;48;
47079;PMS5003;33067;49.296;14.470;2023-04-06T02:51:48;53;49;
47079;PMS5003;33067;49.296;14.470;2023-04-06T02:54:14;61;55;
47079;PMS5003;33067;49.296;14.470;2023-04-06T02:56:39;49;43;
47079;PMS5003;33067;49.296;14.470;2023-04-06T02:59:04;63;55;
47079;PMS5003;33067;49.296;14.470;2023-04-06T03:01:29;55;51;
47079;PMS5003;33067;49.296;14.470;2023-04-06T03:03:55;62;57;
47079;PMS5003;33067;49.296;14.470;2023-04-06T03:06:20;53;49;
47079;PMS5003;33067;49.296;14.470;2023-04-06T03:08:45;59;57;
47079;PMS5003;33067;49.296;14.470;2023-04-06T03:11:11;65;55;
47079;PMS5003;33067;49.296;14.470;2023-04-06T03:13:37;59;53;
47079;PMS5003;33067;49.296;14.470;2023-04-06T03:16:02;66;59;
47079;PMS5003;33067;49.296;14.470;2023-04-06T03:18:27;65;60;
47079;PMS5003;33067;49.296;14.470;2023-04-06T03:20:53;59;55;
47079;PMS5003;33067;49.296;14.470;2023-04-06T03:23:18;59;55;
47079;PMS5003;33067;49.296;14.470;2023-04-06T03:25:44;56;49;
47079;PMS5003;33067;49.296;14.470;2023-04-06T03:28:09;55;52;
47079;PMS5003;33067;49.296;14.470;2023-04-06T03:30:35;65;59;
47079;PMS5003;33067;49.296;14.470;2023-04-06T03:33:00;57;55;
47079;PMS5003;33067;49.296;14.470;2023-04-06T03:35:25;53;52;
47079;PMS5003;33067;49.296;14.470;2023-04-06T03:37:51;59;52;
47079;PMS5003;33067;49.296;14.470;2023-04-06T03:40:16;51;48;
47079;PMS5003;33067;49.296;14.470;2023-04-06T03:42:42;52;49;
47079;PMS5003;33067;49.296;14.470;2023-04-06T03:45:07;55;51;
47079;PMS5003;33067;49.296;14.470;2023-04-06T03:47:33;49;44;
47079;PMS5003;33067;49.296;14.470;2023-04-06T03:49:58;60;55;
47079;PMS5003;33067;49.296;14.470;2023-04-06T03:52:24;59;50;
47079;PMS5003;33067;49.296;14.470;2023-04-06T03:54:49;58;50;
47079;PMS5003;33067;49.296;14.470;2023-04-06T03:57:14;56;53;
47079;PMS5003;33067;49.296;14.470;2023-04-06T03:59:40;61;55;
47079;PMS5003;33067;49.296;14.470;2023-04-06T04:02:05;62;60;
47079;PMS5003;33067;49.296;14.470;2023-04-06T04:04:30;52;49;
47079;PMS5003;33067;49.296;14.470;2023-04-06T04:06:56;67;61;
47079;PMS5003;33067;49.296;14.470;2023-04-06T04:09:21;55;55;
47079;PMS5003;33067;49.296;14.470;2023-04-06T04:11:47;56;49;
47079;PMS5003;33067;49.296;14.470;2023-04-06T04:14:12;58;54;
47079;PMS5003;33067;49.296;14.470;2023-04-06T04:16:37;54;52;
47079;PMS5003;33067;49.296;14.470;2023-04-06T04:19:02;56;50;
47079;PMS5003;33067;49.296;14.470;2023-04-06T04:21:29;59;54;
47079;PMS5003;33067;49.296;14.470;2023-04-06T04:23:53;74;64;
47079;PMS5003;33067;49.296;14.470;2023-04-06T04:26:18;76;69;
47079;PMS5003;33067;49.296;14.470;2023-04-06T04:28:44;74;66;
47079;PMS5003;33067;49.296;14.470;2023-04-06T04:31:10;72;68;
47079;PMS5003;33067;49.296;14.470;2023-04-06T04:33:35;69;62;
47079;PMS5003;33067;49.296;14.470;2023-04-06T04:36:01;66;56;
47079;PMS5003;33067;49.296;14.470;2023-04-06T04:38:26;75;61;
47079;PMS5003;33067;49.296;14.470;2023-04-06T04:40:51;64;60;
47079;PMS5003;33067;49.296;14.470;2023-04-06T04:43:17;78;67;
47079;PMS5003;33067;49.296;14.470;2023-04-06T04:45:42;56;49;
47079;PMS5003;33067;49.296;14.470;2023-04-06T04:48:07;61;56;
47079;PMS5003;33067;49.296;14.470;2023-04-06T04:50:33;53;49;
47079;PMS5003;33067;49.296;14.470;2023-04-06T04:52:58;50;45;
47079;PMS5003;33067;49.296;14.470;2023-04-06T04:55:24;54;50;
47079;PMS5003;33067;49.296;14.470;2023-04-06T04:57:49;69;60;
47079;PMS5003;33067;49.296;14.470;2023-04-06T05:00:14;68;57;
47079;PMS5003;33067;49.296;14.470;2023-04-06T05:02:39;55;49;
47079;PMS5003;33067;49.296;14.470;2023-04-06T05:05:05;50;49;
47079;PMS5003;33067;49.296;14.470;2023-04-06T05:07:30;67;58;
47079;PMS5003;33067;49.296;14.470;2023-04-06T05:09:55;55;52;
47079;PMS5003;33067;49.296;14.470;2023-04-06T05:12:21;68;63;
47079;PMS5003;33067;49.296;14.470;2023-04-06T05:14:46;64;59;
47079;PMS5003;33067;49.296;14.470;2023-04-06T05:17:11;82;64;
47079;PMS5003;33067;49.296;14.470;2023-04-06T05:19:37;71;67;
47079;PMS5003;33067;49.296;14.470;2023-04-06T05:22:07;75;67;
47079;PMS5003;33067;49.296;14.470;2023-04-06T05:24:28;70;61;
47079;PMS5003;33067;49.296;14.470;2023-04-06T05:26:53;71;62;
47079;PMS5003;33067;49.296;14.470;2023-04-06T05:29:18;70;62;
47079;PMS5003;33067;49.296;14.470;2023-04-06T05:31:44;77;66;
47079;PMS5003;33067;49.296;14.470;2023-04-06T05:34:10;64;58;
47079;PMS5003;33067;49.296;14.470;2023-04-06T05:36:35;60;57;
47079;PMS5003;33067;49.296;14.470;2023-04-06T05:39:01;65;56;
47079;PMS5003;33067;49.296;14.470;2023-04-06T05:41:26;66;57;
47079;PMS5003;33067;49.296;14.470;2023-04-06T05:43:52;59;52;
47079;PMS5003;33067;49.296;14.470;2023-04-06T05:46:18;59;58;
47079;PMS5003;33067;49.296;14.470;2023-04-06T05:48:43;60;57;
47079;PMS5003;33067;49.296;14.470;2023-04-06T05:51:09;55;53;
47079;PMS5003;33067;49.296;14.470;2023-04-06T05:53:34;54;53;
47079;PMS5003;33067;49.296;14.470;2023-04-06T05:56:00;51;51;
47079;PMS5003;33067;49.296;14.470;2023-04-06T05:58:26;57;51;
47079;PMS5003;33067;49.296;14.470;2023-04-06T06:00:51;60;55;
47079;PMS5003;33067;49.296;14.470;2023-04-06T06:03:16;64;50;
47079;PMS5003;33067;49.296;14.470;2023-04-06T06:05:42;58;53;
47079;PMS5003;33067;49.296;14.470;2023-04-06T06:08:07;65;61;
47079;PMS5003;33067;49.296;14.470;2023-04-06T06:10:32;60;53;
47079;PMS5003;33067;49.296;14.470;2023-04-06T06:12:57;64;59;
47079;PMS5003;33067;49.296;14.470;2023-04-06T06:15:22;58;51;
47079;PMS5003;33067;49.296;14.470;2023-04-06T06:17:48;66;59;
47079;PMS5003;33067;49.296;14.470;2023-04-06T06:20:14;63;59;
47079;PMS5003;33067;49.296;14.470;2023-04-06T06:22:39;57;56;
47079;PMS5003;33067;49.296;14.470;2023-04-06T06:25:05;87;83;
47079;PMS5003;33067;49.296;14.470;2023-04-06T06:27:30;68;65;
47079;PMS5003;33067;49.296;14.470;2023-04-06T06:29:55;66;60;
47079;PMS5003;33067;49.296;14.470;2023-04-06T06:32:22;71;63;
47079;PMS5003;33067;49.296;14.470;2023-04-06T06:34:46;269;267;
47079;PMS5003;33067;49.296;14.470;2023-04-06T06:37:12;115;110;
47079;PMS5003;33067;49.296;14.470;2023-04-06T06:39:37;84;80;
47079;PMS5003;33067;49.296;14.470;2023-04-06T06:42:02;76;75;
47079;PMS5003;33067;49.296;14.470;2023-04-06T06:44:28;73;69;
47079;PMS5003;33067;49.296;14.470;2023-04-06T06:46:53;73;67;
47079;PMS5003;33067;49.296;14.470;2023-04-06T06:49:18;165;165;
47079;PMS5003;33067;49.296;14.470;2023-04-06T06:51:44;58;56;
47079;PMS5003;33067;49.296;14.470;2023-04-06T06:54:09;67;64;
47079;PMS5003;33067;49.296;14.470;2023-04-06T06:56:34;71;66;
47079;PMS5003;33067;49.296;14.470;2023-04-06T06:59:00;58;51;
47079;PMS5003;33067;49.296;14.470;2023-04-06T07:01:25;55;50;
47079;PMS5003;33067;49.296;14.470;2023-04-06T07:03:50;46;45;
47079;PMS5003;33067;49.296;14.470;2023-04-06T07:06:16;51;46;
47079;PMS5003;33067;49.296;14.470;2023-04-06T07:08:41;51;49;
47079;PMS5003;33067;49.296;14.470;2023-04-06T07:11:07;47;46;
47079;PMS5003;33067;49.296;14.470;2023-04-06T07:13:32;51;44;
47079;PMS5003;33067;49.296;14.470;2023-04-06T07:15:57;50;45;
47079;PMS5003;33067;49.296;14.470;2023-04-06T07:18:23;49;44;
47079;PMS5003;33067;49.296;14.470;2023-04-06T07:20:49;49;46;
47079;PMS5003;33067;49.296;14.470;2023-04-06T07:23:15;44;40;
47079;PMS5003;33067;49.296;14.470;2023-04-06T07:25:41;42;37;
47079;PMS5003;33067;49.296;14.470;2023-04-06T07:28:06;47;47;
47079;PMS5003;33067;49.296;14.470;2023-04-06T07:30:31;53;46;
47079;PMS5003;33067;49.296;14.470;2023-04-06T07:32:57;47;43;
47079;PMS5003;33067;49.296;14.470;2023-04-06T07:35:22;54;47;
47079;PMS5003;33067;49.296;14.470;2023-04-06T07:37:48;47;43;
47079;PMS5003;33067;49.296;14.470;2023-04-06T07:40:14;44;37;
47079;PMS5003;33067;49.296;14.470;2023-04-06T07:42:40;42;40;
47079;PMS5003;33067;49.296;14.470;2023-04-06T07:45:05;49;45;
47079;PMS5003;33067;49.296;14.470;2023-04-06T07:47:30;46;46;
47079;PMS5003;33067;49.296;14.470;2023-04-06T07:49:55;52;47;
47079;PMS5003;33067;49.296;14.470;2023-04-06T07:52:21;51;46;
47079;PMS5003;33067;49.296;14.470;2023-04-06T07:54:46;42;39;
47079;PMS5003;33067;49.296;14.470;2023-04-06T07:57:12;49;48;
47079;PMS5003;33067;49.296;14.470;2023-04-06T07:59:37;51;49;
47079;PMS5003;33067;49.296;14.470;2023-04-06T08:02:02;56;48;
47079;PMS5003;33067;49.296;14.470;2023-04-06T08:04:28;51;51;
47079;PMS5003;33067;49.296;14.470;2023-04-06T08:06:54;44;42;
47079;PMS5003;33067;49.296;14.470;2023-04-06T08:09:19;59;58;
47079;PMS5003;33067;49.296;14.470;2023-04-06T08:11:44;66;62;
47079;PMS5003;33067;49.296;14.470;2023-04-06T08:14:09;54;53;
47079;PMS5003;33067;49.296;14.470;2023-04-06T08:16:35;57;56;
47079;PMS5003;33067;49.296;14.470;2023-04-06T08:19:01;61;57;
47079;PMS5003;33067;49.296;14.470;2023-04-06T08:21:25;71;70;
47079;PMS5003;33067;49.296;14.470;2023-04-06T08:23:51;66;63;
47079;PMS5003;33067;49.296;14.470;2023-04-06T08:26:16;60;58;
47079;PMS5003;33067;49.296;14.470;2023-04-06T08:28:41;51;49;
47079;PMS5003;33067;49.296;14.470;2023-04-06T08:31:07;44;44;
47079;PMS5003;33067;49.296;14.470;2023-04-06T08:33:33;53;49;
47079;PMS5003;33067;49.296;14.470;2023-04-06T08:35:58;46;46;
47079;PMS5003;33067;49.296;14.470;2023-04-06T08:38:24;105;93;
47079;PMS5003;33067;49.296;14.470;2023-04-06T08:40:49;76;73;
47079;PMS5003;33067;49.296;14.470;2023-04-06T08:43:16;67;53;
47079;PMS5003;33067;49.296;14.470;2023-04-06T08:45:40;45;45;
47079;PMS5003;33067;49.296;14.470;2023-04-06T08:48:06;44;42;
47079;PMS5003;33067;49.296;14.470;2023-04-06T08:50:31;55;51;
47079;PMS5003;33067;49.296;14.470;2023-04-06T08:52:56;52;50;
47079;PMS5003;33067;49.296;14.470;2023-04-06T08:55:22;37;32;
47079;PMS5003;33067;49.296;14.470;2023-04-06T08:57:48;35;32;
47079;PMS5003;33067;49.296;14.470;2023-04-06T09:00:14;32;32;
47079;PMS5003;33067;49.296;14.470;2023-04-06T09:02:39;39;37;
47079;PMS5003;33067;49.296;14.470;2023-04-06T09:05:04;27;26;
47079;PMS5003;33067;49.296;14.470;2023-04-06T09:07:29;35;32;
47079;PMS5003;33067;49.296;14.470;2023-04-06T09:09:55;24;23;
47079;PMS5003;33067;49.296;14.470;2023-04-06T09:12:22;28;24;
47079;PMS5003;33067;49.296;14.470;2023-04-06T09:14:46;35;34;
47079;PMS5003;33067;49.296;14.470;2023-04-06T09:22:02;30;26;
47079;PMS5003;33067;49.296;14.470;2023-04-06T09:24:27;26;23;
47079;PMS5003;33067;49.296;14.470;2023-04-06T09:26:52;32;31;
47079;PMS5003;33067;49.296;14.470;2023-04-06T09:29:22;25;25;
47079;PMS5003;33067;49.296;14.470;2023-04-06T09:31:43;24;23;
47079;PMS5003;33067;49.296;14.470;2023-04-06T09:34:19;23;22;
47079;PMS5003;33067;49.296;14.470;2023-04-06T09:36:35;27;23;
47079;PMS5003;33067;49.296;14.470;2023-04-06T09:39:01;28;25;
47079;PMS5003;33067;49.296;14.470;2023-04-06T09:41:26;22;22;
47079;PMS5003;33067;49.296;14.470;2023-04-06T09:43:51;23;23;
47079;PMS5003;33067;49.296;14.470;2023-04-06T09:46:16;25;24;
47079;PMS5003;33067;49.296;14.470;2023-04-06T09:48:42;22;21;
47079;PMS5003;33067;49.296;14.470;2023-04-06T09:51:07;19;19;
47079;PMS5003;33067;49.296;14.470;2023-04-06T09:53:32;22;22;
47079;PMS5003;33067;49.296;14.470;2023-04-06T09:55:57;22;20;
47079;PMS5003;33067;49.296;14.470;2023-04-06T09:58:23;20;19;
47079;PMS5003;33067;49.296;14.470;2023-04-06T10:00:51;18;18;
47079;PMS5003;33067;49.296;14.470;2023-04-06T10:03:16;24;24;
47079;PMS5003;33067;49.296;14.470;2023-04-06T10:05:42;25;23;
47079;PMS5003;33067;49.296;14.470;2023-04-06T10:08:06;30;29;
47079;PMS5003;33067;49.296;14.470;2023-04-06T10:10:31;23;22;
47079;PMS5003;33067;49.296;14.470;2023-04-06T10:12:57;31;31;
47079;PMS5003;33067;49.296;14.470;2023-04-06T10:15:22;27;26;
47079;PMS5003;33067;49.296;14.470;2023-04-06T10:17:47;24;24;
47079;PMS5003;33067;49.296;14.470;2023-04-06T10:20:14;25;25;
47079;PMS5003;33067;49.296;14.470;2023-04-06T10:22:41;35;34;
47079;PMS5003;33067;49.296;14.470;2023-04-06T10:25:04;24;22;
47079;PMS5003;33067;49.296;14.470;2023-04-06T10:27:29;24;22;
47079;PMS5003;33067;49.296;14.470;2023-04-06T10:29:54;23;20;
47079;PMS5003;33067;49.296;14.470;2023-04-06T10:32:20;21;21;
47079;PMS5003;33067;49.296;14.470;2023-04-06T10:34:51;22;22;
47079;PMS5003;33067;49.296;14.470;2023-04-06T10:37:16;43;39;
47079;PMS5003;33067;49.296;14.470;2023-04-06T10:42:06;40;34;
47079;PMS5003;33067;49.296;14.470;2023-04-06T10:44:28;34;31;
47079;PMS5003;33067;49.296;14.470;2023-04-06T10:46:55;24;24;
47079;PMS5003;33067;49.296;14.470;2023-04-06T10:49:19;24;23;
47079;PMS5003;33067;49.296;14.470;2023-04-06T10:51:44;27;24;
47079;PMS5003;33067;49.296;14.470;2023-04-06T10:54:09;30;26;
47079;PMS5003;33067;49.296;14.470;2023-04-06T10:56:36;22;22;
47079;PMS5003;33067;49.296;14.470;2023-04-06T10:58:59;37;35;
47079;PMS5003;33067;49.296;14.470;2023-04-06T11:01:25;28;26;
47079;PMS5003;33067;49.296;14.470;2023-04-06T11:03:51;64;63;
47079;PMS5003;33067;49.296;14.470;2023-04-06T11:06:19;44;41;
47079;PMS5003;33067;49.296;14.470;2023-04-06T11:08:41;58;58;
47079;PMS5003;33067;49.296;14.470;2023-04-06T11:11:07;66;65;
47079;PMS5003;33067;49.296;14.470;2023-04-06T11:13:39;91;82;
47079;PMS5003;33067;49.296;14.470;2023-04-06T11:15:58;96;81;
47079;PMS5003;33067;49.296;14.470;2023-04-06T11:18:23;68;64;
47079;PMS5003;33067;49.296;14.470;2023-04-06T11:20:49;48;48;
47079;PMS5003;33067;49.296;14.470;2023-04-06T11:25:49;65;61;
47079;PMS5003;33067;49.296;14.470;2023-04-06T11:28:05;57;57;
47079;PMS5003;33067;49.296;14.470;2023-04-06T11:30:30;73;72;
47079;PMS5003;33067;49.296;14.470;2023-04-06T11:33:00;61;61;
47079;PMS5003;33067;49.296;14.470;2023-04-06T11:35:21;62;62;
47079;PMS5003;33067;49.296;14.470;2023-04-06T11:37:46;87;82;
47079;PMS5003;33067;49.296;14.470;2023-04-06T11:40:11;49;49;
47079;PMS5003;33067;49.296;14.470;2023-04-06T11:42:37;60;60;
47079;PMS5003;33067;49.296;14.470;2023-04-06T11:45:02;58;58;
47079;PMS5003;33067;49.296;14.470;2023-04-06T11:47:28;31;30;
47079;PMS5003;33067;49.296;14.470;2023-04-06T11:49:53;44;44;
47079;PMS5003;33067;49.296;14.470;2023-04-06T11:52:19;55;54;
47079;PMS5003;33067;49.296;14.470;2023-04-06T11:54:44;41;41;
47079;PMS5003;33067;49.296;14.470;2023-04-06T11:57:09;35;35;
47079;PMS5003;33067;49.296;14.470;2023-04-06T11:59:35;53;47;
47079;PMS5003;33067;49.296;14.470;2023-04-06T12:02:00;57;54;
47079;PMS5003;33067;49.296;14.470;2023-04-06T12:04:25;31;31;
47079;PMS5003;33067;49.296;14.470;2023-04-06T12:06:50;47;46;
47079;PMS5003;33067;49.296;14.470;2023-04-06T12:09:16;42;42;
47079;PMS5003;33067;49.296;14.470;2023-04-06T12:11:41;47;42;
47079;PMS5003;33067;49.296;14.470;2023-04-06T12:14:06;45;41;
47079;PMS5003;33067;49.296;14.470;2023-04-06T12:16:31;27;25;
47079;PMS5003;33067;49.296;14.470;2023-04-06T12:18:57;39;39;
47079;PMS5003;33067;49.296;14.470;2023-04-06T12:21:22;21;21;
47079;PMS5003;33067;49.296;14.470;2023-04-06T12:23:48;22;22;
47079;PMS5003;33067;49.296;14.470;2023-04-06T12:26:13;23;21;
47079;PMS5003;33067;49.296;14.470;2023-04-06T12:28:38;20;20;
47079;PMS5003;33067;49.296;14.470;2023-04-06T12:31:04;25;25;
47079;PMS5003;33067;49.296;14.470;2023-04-06T12:33:30;25;23;
47079;PMS5003;33067;49.296;14.470;2023-04-06T12:35:55;29;24;
47079;PMS5003;33067;49.296;14.470;2023-04-06T12:38:20;21;21;
47079;PMS5003;33067;49.296;14.470;2023-04-06T12:40:46;19;19;
47079;PMS5003;33067;49.296;14.470;2023-04-06T12:43:11;25;22;
47079;PMS5003;33067;49.296;14.470;2023-04-06T12:45:37;22;21;
47079;PMS5003;33067;49.296;14.470;2023-04-06T12:48:03;21;21;
47079;PMS5003;33067;49.296;14.470;2023-04-06T12:50:28;22;22;
47079;PMS5003;33067;49.296;14.470;2023-04-06T12:52:54;45;43;
47079;PMS5003;33067;49.296;14.470;2023-04-06T12:55:19;25;25;
47079;PMS5003;33067;49.296;14.470;2023-04-06T12:57:45;55;55;
47079;PMS5003;33067;49.296;14.470;2023-04-06T13:00:10;37;37;
47079;PMS5003;33067;49.296;14.470;2023-04-06T13:02:35;26;25;
47079;PMS5003;33067;49.296;14.470;2023-04-06T13:05:01;25;25;
47079;PMS5003;33067;49.296;14.470;2023-04-06T13:07:26;26;26;
47079;PMS5003;33067;49.296;14.470;2023-04-06T13:09:52;31;25;
47079;PMS5003;33067;49.296;14.470;2023-04-06T13:12:17;28;26;
47079;PMS5003;33067;49.296;14.470;2023-04-06T13:14:42;28;28;
47079;PMS5003;33067;49.296;14.470;2023-04-06T13:17:08;23;22;
47079;PMS5003;33067;49.296;14.470;2023-04-06T13:19:33;46;46;
47079;PMS5003;33067;49.296;14.470;2023-04-06T13:21:58;43;42;
47079;PMS5003;33067;49.296;14.470;2023-04-06T13:24:24;49;46;
47079;PMS5003;33067;49.296;14.470;2023-04-06T13:26:49;63;60;
47079;PMS5003;33067;49.296;14.470;2023-04-06T13:29:15;37;37;
47079;PMS5003;33067;49.296;14.470;2023-04-06T13:31:40;37;37;
47079;PMS5003;33067;49.296;14.470;2023-04-06T13:34:05;62;62;
47079;PMS5003;33067;49.296;14.470;2023-04-06T13:36:31;46;44;
47079;PMS5003;33067;49.296;14.470;2023-04-06T13:38:56;34;32;
47079;PMS5003;33067;49.296;14.470;2023-04-06T13:41:23;37;36;
47079;PMS5003;33067;49.296;14.470;2023-04-06T13:43:48;57;57;
47079;PMS5003;33067;49.296;14.470;2023-04-06T13:46:13;20;19;
47079;PMS5003;33067;49.296;14.470;2023-04-06T13:48:39;26;26;
47079;PMS5003;33067;49.296;14.470;2023-04-06T13:51:07;38;34;
47079;PMS5003;33067;49.296;14.470;2023-04-06T13:53:30;23;21;
47079;PMS5003;33067;49.296;14.470;2023-04-06T13:55:55;40;38;
47079;PMS5003;33067;49.296;14.470;2023-04-06T13:58:21;33;31;
47079;PMS5003;33067;49.296;14.470;2023-04-06T14:00:46;31;27;
47079;PMS5003;33067;49.296;14.470;2023-04-06T14:03:12;31;30;
47079;PMS5003;33067;49.296;14.470;2023-04-06T14:05:38;22;21;
47079;PMS5003;33067;49.296;14.470;2023-04-06T14:08:03;22;21;
47079;PMS5003;33067;49.296;14.470;2023-04-06T14:10:28;21;20;
47079;PMS5003;33067;49.296;14.470;2023-04-06T14:12:53;25;24;
47079;PMS5003;33067;49.296;14.470;2023-04-06T14:15:18;31;30;
47079;PMS5003;33067;49.296;14.470;2023-04-06T14:17:44;33;33;
47079;PMS5003;33067;49.296;14.470;2023-04-06T14:20:10;32;30;
47079;PMS5003;33067;49.296;14.470;2023-04-06T14:22:35;39;39;
47079;PMS5003;33067;49.296;14.470;2023-04-06T14:25:00;39;39;
47079;PMS5003;33067;49.296;14.470;2023-04-06T14:27:25;39;39;
47079;PMS5003;33067;49.296;14.470;2023-04-06T14:29:51;30;30;
47079;PMS5003;33067;49.296;14.470;2023-04-06T14:32:16;22;20;
47079;PMS5003;33067;49.296;14.470;2023-04-06T14:34:42;32;31;
47079;PMS5003;33067;49.296;14.470;2023-04-06T14:37:08;31;31;
47079;PMS5003;33067;49.296;14.470;2023-04-06T14:39:33;28;25;
47079;PMS5003;33067;49.296;14.470;2023-04-06T14:41:59;64;64;
47079;PMS5003;33067;49.296;14.470;2023-04-06T14:44:24;38;37;
47079;PMS5003;33067;49.296;14.470;2023-04-06T14:46:49;54;53;
47079;PMS5003;33067;49.296;14.470;2023-04-06T14:49:14;33;33;
47079;PMS5003;33067;49.296;14.470;2023-04-06T14:51:40;21;21;
47079;PMS5003;33067;49.296;14.470;2023-04-06T14:54:05;35;35;
47079;PMS5003;33067;49.296;14.470;2023-04-06T14:56:31;68;68;
47079;PMS5003;33067;49.296;14.470;2023-04-06T14:58:57;30;30;
47079;PMS5003;33067;49.296;14.470;2023-04-06T15:01:23;74;73;
47079;PMS5003;33067;49.296;14.470;2023-04-06T15:03:48;22;20;
47079;PMS5003;33067;49.296;14.470;2023-04-06T15:06:14;47;46;
47079;PMS5003;33067;49.296;14.470;2023-04-06T15:08:39;24;21;
47079;PMS5003;33067;49.296;14.470;2023-04-06T15:11:04;20;19;
47079;PMS5003;33067;49.296;14.470;2023-04-06T15:13:30;20;19;
47079;PMS5003;33067;49.296;14.470;2023-04-06T15:15:55;21;21;
47079;PMS5003;33067;49.296;14.470;2023-04-06T15:18:20;20;19;
47079;PMS5003;33067;49.296;14.470;2023-04-06T15:20:45;20;20;
47079;PMS5003;33067;49.296;14.470;2023-04-06T15:23:11;22;22;
47079;PMS5003;33067;49.296;14.470;2023-04-06T15:25:36;25;21;
47079;PMS5003;33067;49.296;14.470;2023-04-06T15:28:01;22;21;
47079;PMS5003;33067;49.296;14.470;2023-04-06T15:30:27;28;28;
47079;PMS5003;33067;49.296;14.470;2023-04-06T15:32:53;30;29;
47079;PMS5003;33067;49.296;14.470;2023-04-06T15:35:18;33;30;
47079;PMS5003;33067;49.296;14.470;2023-04-06T15:37:43;30;30;
47079;PMS5003;33067;49.296;14.470;2023-04-06T15:40:09;33;31;
47079;PMS5003;33067;49.296;14.470;2023-04-06T15:42:34;19;19;
47079;PMS5003;33067;49.296;14.470;2023-04-06T15:44:59;22;19;
47079;PMS5003;33067;49.296;14.470;2023-04-06T15:47:25;21;21;
47079;PMS5003;33067;49.296;14.470;2023-04-06T15:49:51;22;21;
47079;PMS5003;33067;49.296;14.470;2023-04-06T15:52:16;17;17;
47079;PMS5003;33067;49.296;14.470;2023-04-06T15:54:42;22;22;
47079;PMS5003;33067;49.296;14.470;2023-04-06T15:57:07;19;19;
47079;PMS5003;33067;49.296;14.470;2023-04-06T15:59:33;22;22;
47079;PMS5003;33067;49.296;14.470;2023-04-06T16:01:58;22;21;